sensor_id;sensor_type;location;lat;lon;timestamp;temperature;humidity
13074;DHT22;6603;47.066;15.396;2024-01-15T00:00:44;-4.20;99.90
13074;DHT22;6603;47.066;15.396;2024-01-15T00:03:09;-4.30;99.90
13074;DHT22;6603;47.066;15.396;2024-01-15T00:05:36;-4.10;99.90
13074;DHT22;6603;47.066;15.396;2024-01-15T00:08:02;-4.00;99.90
13074;DHT22;6603;47.066;15.396;2024-01-15T00:10:28;-4.10;99.90
13074;DHT22;6603;47.066;15.396;2024-01-15T00:12:54;-4.00;99.90
13074;DHT22;6603;47.066;15.396;2024-01-15T00:15:20;-3.80;99.90
13074;DHT22;6603;47.066;15.396;2024-01-15T00:17:46;-3.90;99.90
13074;DHT22;6603;47.066;15.396;2024-01-15T00:20:12;-4.10;99.90
13074;DHT22;6603;47.066;15.396;2024-01-15T00:22:37;-3.80;99.90
13074;DHT22;6603;47.066;15.396;2024-01-15T00:25:04;-4.00;99.90
13074;DHT22;6603;47.066;15.396;2024-01-15T00:27:30;-4.00;99.90
13074;DHT22;6603;47.066;15.396;2024-01-15T00:29:56;-4.10;99.90
13074;DHT22;6603;47.066;15.396;2024-01-15T00:32:21;-4.20;99.90
13074;DHT22;6603;47.066;15.396;2024-01-15T00:34:47;-4.00;99.90
13074;DHT22;6603;47.066;15.396;2024-01-15T00:37:13;-4.00;99.90
13074;DHT22;6603;47.066;15.396;2024-01-15T00:39:39;-3.90;99.90
13074;DHT22;6603;47.066;15.396;2024-01-15T00:42:05;-3.90;99.90
13074;DHT22;6603;47.066;15.396;2024-01-15T00:44:31;-4.10;99.90
13074;DHT22;6603;47.066;15.396;2024-01-15T00:46:57;-4.10;99.90
13074;DHT22;6603;47.066;15.396;2024-01-15T00:49:23;-4.20;99.90
13074;DHT22;6603;47.066;15.396;2024-01-15T00:51:50;-4.40;99.90
13074;DHT22;6603;47.066;15.396;2024-01-15T00:54:15;-4.40;99.90
13074;DHT22;6603;47.066;15.396;2024-01-15T00:56:41;-4.10;99.90
13074;DHT22;6603;47.066;15.396;2024-01-15T00:59:07;-4.20;99.90
13074;DHT22;6603;47.066;15.396;2024-01-15T01:01:36;-4.30;99.90
13074;DHT22;6603;47.066;15.396;2024-01-15T01:04:03;-4.40;99.90
13074;DHT22;6603;47.066;15.396;2024-01-15T01:06:29;-4.40;99.90
13074;DHT22;6603;47.066;15.396;2024-01-15T01:08:55;-4.30;99.90
13074;DHT22;6603;47.066;15.396;2024-01-15T01:11:21;-4.40;99.90
13074;DHT22;6603;47.066;15.396;2024-01-15T01:13:47;-4.50;99.90
13074;DHT22;6603;47.066;15.396;2024-01-15T01:16:13;-4.50;99.90
13074;DHT22;6603;47.066;15.396;2024-01-15T01:18:38;-4.60;99.90
13074;DHT22;6603;47.066;15.396;2024-01-15T01:21:04;-4.50;99.90
13074;DHT22;6603;47.066;15.396;2024-01-15T01:23:30;-4.30;99.90
13074;DHT22;6603;47.066;15.396;2024-01-15T01:25:56;-4.20;99.90
13074;DHT22;6603;47.066;15.396;2024-01-15T01:28:22;-4.10;99.90
13074;DHT22;6603;47.066;15.396;2024-01-15T01:30:47;-4.30;99.90
13074;DHT22;6603;47.066;15.396;2024-01-15T01:33:13;-4.50;99.90
13074;DHT22;6603;47.066;15.396;2024-01-15T01:35:39;-4.30;99.90
13074;DHT22;6603;47.066;15.396;2024-01-15T01:38:05;-4.30;99.90
13074;DHT22;6603;47.066;15.396;2024-01-15T01:40:31;-4.30;99.90
13074;DHT22;6603;47.066;15.396;2024-01-15T01:42:57;-4.40;99.90
13074;DHT22;6603;47.066;15.396;2024-01-15T01:45:23;-4.50;99.90
13074;DHT22;6603;47.066;15.396;2024-01-15T01:47:49;-4.60;99.90
13074;DHT22;6603;47.066;15.396;2024-01-15T01:50:15;-4.60;99.90
13074;DHT22;6603;47.066;15.396;2024-01-15T01:52:41;-4.50;99.90
13074;DHT22;6603;47.066;15.396;2024-01-15T01:55:09;-4.60;99.90
13074;DHT22;6603;47.066;15.396;2024-01-15T01:57:37;-4.40;99.90
13074;DHT22;6603;47.066;15.396;2024-01-15T02:00:03;-4.50;99.90
13074;DHT22;6603;47.066;15.396;2024-01-15T02:02:31;-4.60;99.90
13074;DHT22;6603;47.066;15.396;2024-01-15T02:05:01;-4.50;99.90
13074;DHT22;6603;47.066;15.396;2024-01-15T02:07:28;-4.60;99.90
13074;DHT22;6603;47.066;15.396;2024-01-15T02:09:54;-4.60;99.90
13074;DHT22;6603;47.066;15.396;2024-01-15T02:12:19;-4.30;99.90
13074;DHT22;6603;47.066;15.396;2024-01-15T02:14:45;-4.30;99.90
13074;DHT22;6603;47.066;15.396;2024-01-15T02:17:11;-4.40;99.90
13074;DHT22;6603;47.066;15.396;2024-01-15T02:19:37;-4.40;99.90
13074;DHT22;6603;47.066;15.396;2024-01-15T02:22:05;-4.30;99.90
13074;DHT22;6603;47.066;15.396;2024-01-15T02:24:31;-4.40;99.90
13074;DHT22;6603;47.066;15.396;2024-01-15T02:26:57;-4.70;99.90
13074;DHT22;6603;47.066;15.396;2024-01-15T02:29:22;-4.50;99.90
13074;DHT22;6603;47.066;15.396;2024-01-15T02:31:48;-4.50;99.90
13074;DHT22;6603;47.066;15.396;2024-01-15T02:34:14;-4.60;99.90
13074;DHT22;6603;47.066;15.396;2024-01-15T02:36:40;-4.50;99.90
13074;DHT22;6603;47.066;15.396;2024-01-15T02:39:06;-4.50;99.90
13074;DHT22;6603;47.066;15.396;2024-01-15T02:41:32;-4.40;99.90
13074;DHT22;6603;47.066;15.396;2024-01-15T02:43:58;-4.60;99.90
13074;DHT22;6603;47.066;15.396;2024-01-15T02:46:24;-4.70;99.90
13074;DHT22;6603;47.066;15.396;2024-01-15T02:48:49;-4.70;99.90
13074;DHT22;6603;47.066;15.396;2024-01-15T02:51:15;-4.70;99.90
13074;DHT22;6603;47.066;15.396;2024-01-15T02:53:41;-4.50;99.90
13074;DHT22;6603;47.066;15.396;2024-01-15T02:56:07;-4.50;99.90
13074;DHT22;6603;47.066;15.396;2024-01-15T02:58:33;-4.50;99.90
13074;DHT22;6603;47.066;15.396;2024-01-15T03:00:59;-4.60;99.90
13074;DHT22;6603;47.066;15.396;2024-01-15T03:03:25;-4.60;99.90
13074;DHT22;6603;47.066;15.396;2024-01-15T03:05:51;-4.70;99.90
13074;DHT22;6603;47.066;15.396;2024-01-15T03:08:17;-4.40;99.90
13074;DHT22;6603;47.066;15.396;2024-01-15T03:10:43;-4.50;99.90
13074;DHT22;6603;47.066;15.396;2024-01-15T03:13:09;-4.60;99.90
13074;DHT22;6603;47.066;15.396;2024-01-15T03:15:35;-4.50;99.90
13074;DHT22;6603;47.066;15.396;2024-01-15T03:18:00;-4.50;99.90
13074;DHT22;6603;47.066;15.396;2024-01-15T03:20:26;-4.60;99.90
13074;DHT22;6603;47.066;15.396;2024-01-15T03:22:52;-4.50;99.90
13074;DHT22;6603;47.066;15.396;2024-01-15T03:25:18;-4.40;99.90
13074;DHT22;6603;47.066;15.396;2024-01-15T03:27:44;-4.40;99.90
13074;DHT22;6603;47.066;15.396;2024-01-15T03:30:10;-4.40;99.90
13074;DHT22;6603;47.066;15.396;2024-01-15T03:32:37;-4.40;99.90
13074;DHT22;6603;47.066;15.396;2024-01-15T03:35:03;-4.30;99.90
13074;DHT22;6603;47.066;15.396;2024-01-15T03:37:29;-4.10;99.90
13074;DHT22;6603;47.066;15.396;2024-01-15T03:39:55;-4.30;99.90
13074;DHT22;6603;47.066;15.396;2024-01-15T03:42:21;-4.20;99.90
13074;DHT22;6603;47.066;15.396;2024-01-15T03:44:47;-4.10;99.90
13074;DHT22;6603;47.066;15.396;2024-01-15T03:47:12;-4.30;99.90
13074;DHT22;6603;47.066;15.396;2024-01-15T03:49:38;-4.30;99.90
13074;DHT22;6603;47.066;15.396;2024-01-15T03:52:05;-4.30;99.90
13074;DHT22;6603;47.066;15.396;2024-01-15T03:54:31;-4.10;99.90
13074;DHT22;6603;47.066;15.396;2024-01-15T03:56:56;-4.10;99.90
13074;DHT22;6603;47.066;15.396;2024-01-15T03:59:22;-4.10;99.90
13074;DHT22;6603;47.066;15.396;2024-01-15T04:01:49;-4.00;99.90
13074;DHT22;6603;47.066;15.396;2024-01-15T04:04:18;-4.10;99.90
13074;DHT22;6603;47.066;15.396;2024-01-15T04:06:44;-4.10;99.90
13074;DHT22;6603;47.066;15.396;2024-01-15T04:09:11;-4.10;99.90
13074;DHT22;6603;47.066;15.396;2024-01-15T04:11:37;-4.10;99.90
13074;DHT22;6603;47.066;15.396;2024-01-15T04:14:03;-4.20;99.90
13074;DHT22;6603;47.066;15.396;2024-01-15T04:16:29;-4.10;99.90
13074;DHT22;6603;47.066;15.396;2024-01-15T04:18:55;-4.10;99.90
13074;DHT22;6603;47.066;15.396;2024-01-15T04:21:20;-4.20;99.90
13074;DHT22;6603;47.066;15.396;2024-01-15T04:23:46;-4.10;99.90
13074;DHT22;6603;47.066;15.396;2024-01-15T04:26:12;-4.20;99.90
13074;DHT22;6603;47.066;15.396;2024-01-15T04:28:38;-4.20;99.90
13074;DHT22;6603;47.066;15.396;2024-01-15T04:31:04;-4.30;99.90
13074;DHT22;6603;47.066;15.396;2024-01-15T04:33:30;-4.10;99.90
13074;DHT22;6603;47.066;15.396;2024-01-15T04:35:56;-4.30;99.90
13074;DHT22;6603;47.066;15.396;2024-01-15T04:38:22;-4.10;99.90
13074;DHT22;6603;47.066;15.396;2024-01-15T04:40:47;-4.10;99.90
13074;DHT22;6603;47.066;15.396;2024-01-15T04:43:13;-4.00;99.90
13074;DHT22;6603;47.066;15.396;2024-01-15T04:45:39;-4.00;99.90
13074;DHT22;6603;47.066;15.396;2024-01-15T04:48:05;-4.10;99.90
13074;DHT22;6603;47.066;15.396;2024-01-15T04:50:31;-3.80;99.90
13074;DHT22;6603;47.066;15.396;2024-01-15T04:52:57;-3.90;99.90
13074;DHT22;6603;47.066;15.396;2024-01-15T04:55:22;-4.00;99.90
13074;DHT22;6603;47.066;15.396;2024-01-15T04:57:48;-3.90;99.90
13074;DHT22;6603;47.066;15.396;2024-01-15T05:00:14;-3.90;99.90
13074;DHT22;6603;47.066;15.396;2024-01-15T05:02:41;-3.90;99.90
13074;DHT22;6603;47.066;15.396;2024-01-15T05:05:07;-4.00;99.90
13074;DHT22;6603;47.066;15.396;2024-01-15T05:07:32;-3.70;99.90
13074;DHT22;6603;47.066;15.396;2024-01-15T05:09:58;-3.80;99.90
13074;DHT22;6603;47.066;15.396;2024-01-15T05:12:24;-3.90;99.90
13074;DHT22;6603;47.066;15.396;2024-01-15T05:14:50;-4.00;99.90
13074;DHT22;6603;47.066;15.396;2024-01-15T05:17:16;-4.00;99.90
13074;DHT22;6603;47.066;15.396;2024-01-15T05:19:42;-4.10;99.90
13074;DHT22;6603;47.066;15.396;2024-01-15T05:22:08;-4.10;99.90
13074;DHT22;6603;47.066;15.396;2024-01-15T05:24:34;-4.10;99.90
13074;DHT22;6603;47.066;15.396;2024-01-15T05:26:59;-4.20;99.90
13074;DHT22;6603;47.066;15.396;2024-01-15T05:29:25;-4.00;99.90
13074;DHT22;6603;47.066;15.396;2024-01-15T05:31:52;-4.10;99.90
13074;DHT22;6603;47.066;15.396;2024-01-15T05:34:18;-4.10;99.90
13074;DHT22;6603;47.066;15.396;2024-01-15T05:36:44;-4.20;99.90
13074;DHT22;6603;47.066;15.396;2024-01-15T05:39:12;-4.10;99.90
13074;DHT22;6603;47.066;15.396;2024-01-15T05:41:38;-4.10;99.90
13074;DHT22;6603;47.066;15.396;2024-01-15T05:44:04;-4.20;99.90
13074;DHT22;6603;47.066;15.396;2024-01-15T05:46:30;-4.30;99.90
13074;DHT22;6603;47.066;15.396;2024-01-15T05:48:55;-4.30;99.90
13074;DHT22;6603;47.066;15.396;2024-01-15T05:51:21;-4.30;99.90
13074;DHT22;6603;47.066;15.396;2024-01-15T05:53:47;-4.30;99.90
13074;DHT22;6603;47.066;15.396;2024-01-15T05:56:13;-4.30;99.90
13074;DHT22;6603;47.066;15.396;2024-01-15T05:58:39;-4.40;99.90
13074;DHT22;6603;47.066;15.396;2024-01-15T06:01:05;-4.30;99.90
13074;DHT22;6603;47.066;15.396;2024-01-15T06:03:31;-4.50;99.90
13074;DHT22;6603;47.066;15.396;2024-01-15T06:05:57;-4.60;99.90
13074;DHT22;6603;47.066;15.396;2024-01-15T06:08:22;-4.80;99.90
13074;DHT22;6603;47.066;15.396;2024-01-15T06:10:48;-4.70;99.90
13074;DHT22;6603;47.066;15.396;2024-01-15T06:13:14;-4.90;99.90
13074;DHT22;6603;47.066;15.396;2024-01-15T06:15:40;-4.90;99.90
13074;DHT22;6603;47.066;15.396;2024-01-15T06:18:06;-4.90;99.90
13074;DHT22;6603;47.066;15.396;2024-01-15T06:20:32;-4.80;99.90
13074;DHT22;6603;47.066;15.396;2024-01-15T06:22:57;-4.90;99.90
13074;DHT22;6603;47.066;15.396;2024-01-15T06:25:23;-5.00;99.90
13074;DHT22;6603;47.066;15.396;2024-01-15T06:27:49;-5.10;99.90
13074;DHT22;6603;47.066;15.396;2024-01-15T06:30:15;-4.90;99.90
13074;DHT22;6603;47.066;15.396;2024-01-15T06:32:41;-5.10;99.90
13074;DHT22;6603;47.066;15.396;2024-01-15T06:35:07;-5.10;99.90
13074;DHT22;6603;47.066;15.396;2024-01-15T06:37:33;-5.20;99.90
13074;DHT22;6603;47.066;15.396;2024-01-15T06:39:59;-5.10;99.90
13074;DHT22;6603;47.066;15.396;2024-01-15T06:42:25;-5.20;99.90
13074;DHT22;6603;47.066;15.396;2024-01-15T06:44:51;-5.20;99.90
13074;DHT22;6603;47.066;15.396;2024-01-15T06:47:16;-5.20;99.90
13074;DHT22;6603;47.066;15.396;2024-01-15T06:49:43;-5.20;99.90
13074;DHT22;6603;47.066;15.396;2024-01-15T06:52:09;-5.10;99.90
13074;DHT22;6603;47.066;15.396;2024-01-15T06:54:35;-5.10;99.90
13074;DHT22;6603;47.066;15.396;2024-01-15T06:57:01;-5.20;99.90
13074;DHT22;6603;47.066;15.396;2024-01-15T06:59:27;-5.00;99.90
13074;DHT22;6603;47.066;15.396;2024-01-15T07:01:53;-5.20;99.90
13074;DHT22;6603;47.066;15.396;2024-01-15T07:04:18;-5.10;99.90
13074;DHT22;6603;47.066;15.396;2024-01-15T07:06:44;-5.10;99.90
13074;DHT22;6603;47.066;15.396;2024-01-15T07:09:10;-5.20;99.90
13074;DHT22;6603;47.066;15.396;2024-01-15T07:11:36;-5.20;99.90
13074;DHT22;6603;47.066;15.396;2024-01-15T07:14:02;-5.10;99.90
13074;DHT22;6603;47.066;15.396;2024-01-15T07:16:29;-5.10;99.90
13074;DHT22;6603;47.066;15.396;2024-01-15T07:18:55;-5.20;99.90
13074;DHT22;6603;47.066;15.396;2024-01-15T07:21:20;-5.30;99.90
13074;DHT22;6603;47.066;15.396;2024-01-15T07:23:46;-5.20;99.90
13074;DHT22;6603;47.066;15.396;2024-01-15T07:26:13;-5.10;99.90
13074;DHT22;6603;47.066;15.396;2024-01-15T07:28:39;-5.00;99.90
13074;DHT22;6603;47.066;15.396;2024-01-15T07:31:06;-4.80;99.90
13074;DHT22;6603;47.066;15.396;2024-01-15T07:33:32;-4.90;99.90
13074;DHT22;6603;47.066;15.396;2024-01-15T07:35:58;-4.80;99.90
13074;DHT22;6603;47.066;15.396;2024-01-15T07:38:23;-4.80;99.90
13074;DHT22;6603;47.066;15.396;2024-01-15T07:40:49;-4.80;99.90
13074;DHT22;6603;47.066;15.396;2024-01-15T07:43:16;-4.70;99.90
13074;DHT22;6603;47.066;15.396;2024-01-15T07:45:42;-4.70;99.90
13074;DHT22;6603;47.066;15.396;2024-01-15T07:48:07;-4.60;99.90
13074;DHT22;6603;47.066;15.396;2024-01-15T07:50:35;-4.40;99.90
13074;DHT22;6603;47.066;15.396;2024-01-15T07:53:01;-4.20;99.90
13074;DHT22;6603;47.066;15.396;2024-01-15T07:55:26;-4.10;99.90
13074;DHT22;6603;47.066;15.396;2024-01-15T07:57:52;-4.10;99.90
13074;DHT22;6603;47.066;15.396;2024-01-15T08:00:19;-4.20;99.90
13074;DHT22;6603;47.066;15.396;2024-01-15T08:02:45;-4.00;99.90
13074;DHT22;6603;47.066;15.396;2024-01-15T08:05:10;-3.90;99.90
13074;DHT22;6603;47.066;15.396;2024-01-15T08:07:36;-3.80;99.90
13074;DHT22;6603;47.066;15.396;2024-01-15T08:10:02;-3.70;99.90
13074;DHT22;6603;47.066;15.396;2024-01-15T08:12:28;-3.40;99.90
13074;DHT22;6603;47.066;15.396;2024-01-15T08:14:54;-3.40;99.90
13074;DHT22;6603;47.066;15.396;2024-01-15T08:17:20;-3.40;99.90
13074;DHT22;6603;47.066;15.396;2024-01-15T08:19:46;-3.30;99.90
13074;DHT22;6603;47.066;15.396;2024-01-15T08:22:12;-3.20;99.90
13074;DHT22;6603;47.066;15.396;2024-01-15T08:24:38;-3.10;99.90
13074;DHT22;6603;47.066;15.396;2024-01-15T08:27:04;-3.10;99.90
13074;DHT22;6603;47.066;15.396;2024-01-15T08:29:30;-3.20;99.90
13074;DHT22;6603;47.066;15.396;2024-01-15T08:31:59;-3.10;99.90
13074;DHT22;6603;47.066;15.396;2024-01-15T08:34:25;-3.20;99.90
13074;DHT22;6603;47.066;15.396;2024-01-15T08:36:51;-3.20;99.90
13074;DHT22;6603;47.066;15.396;2024-01-15T08:39:17;-3.10;99.90
13074;DHT22;6603;47.066;15.396;2024-01-15T08:41:46;-2.90;99.90
13074;DHT22;6603;47.066;15.396;2024-01-15T08:44:14;-2.70;99.90
13074;DHT22;6603;47.066;15.396;2024-01-15T08:46:40;-2.60;99.90
13074;DHT22;6603;47.066;15.396;2024-01-15T08:49:06;-2.50;99.90
13074;DHT22;6603;47.066;15.396;2024-01-15T08:51:32;-2.50;99.90
13074;DHT22;6603;47.066;15.396;2024-01-15T08:53:59;-2.30;99.90
13074;DHT22;6603;47.066;15.396;2024-01-15T08:56:24;-2.50;99.90
13074;DHT22;6603;47.066;15.396;2024-01-15T08:58:51;-2.50;99.90
13074;DHT22;6603;47.066;15.396;2024-01-15T09:01:17;-2.40;99.90
13074;DHT22;6603;47.066;15.396;2024-01-15T09:03:43;-2.30;99.90
13074;DHT22;6603;47.066;15.396;2024-01-15T09:06:09;-2.20;99.90
13074;DHT22;6603;47.066;15.396;2024-01-15T09:08:35;-2.10;99.90
13074;DHT22;6603;47.066;15.396;2024-01-15T09:11:02;-1.90;99.90
13074;DHT22;6603;47.066;15.396;2024-01-15T09:13:29;-1.70;99.90
13074;DHT22;6603;47.066;15.396;2024-01-15T09:15:55;-1.60;99.90
13074;DHT22;6603;47.066;15.396;2024-01-15T09:18:21;-1.50;99.90
13074;DHT22;6603;47.066;15.396;2024-01-15T09:20:46;-1.40;99.90
13074;DHT22;6603;47.066;15.396;2024-01-15T09:23:12;-1.30;99.90
13074;DHT22;6603;47.066;15.396;2024-01-15T09:25:38;-1.10;99.90
13074;DHT22;6603;47.066;15.396;2024-01-15T09:28:04;-1.00;88.30
13074;DHT22;6603;47.066;15.396;2024-01-15T09:30:30;-0.70;26.80
13074;DHT22;6603;47.066;15.396;2024-01-15T09:32:56;-0.60;1.00
13074;DHT22;6603;47.066;15.396;2024-01-15T09:35:23;-0.50;1.00
13074;DHT22;6603;47.066;15.396;2024-01-15T09:37:48;-0.30;1.00
13074;DHT22;6603;47.066;15.396;2024-01-15T09:40:15;-0.10;1.00
13074;DHT22;6603;47.066;15.396;2024-01-15T09:42:43;0.10;1.00
13074;DHT22;6603;47.066;15.396;2024-01-15T09:45:09;0.20;1.00
13074;DHT22;6603;47.066;15.396;2024-01-15T09:47:37;0.30;1.00
13074;DHT22;6603;47.066;15.396;2024-01-15T09:50:03;0.40;1.00
13074;DHT22;6603;47.066;15.396;2024-01-15T09:52:51;0.60;1.00
13074;DHT22;6603;47.066;15.396;2024-01-15T09:55:18;0.90;1.00
13074;DHT22;6603;47.066;15.396;2024-01-15T09:57:44;1.00;1.00
13074;DHT22;6603;47.066;15.396;2024-01-15T10:00:11;1.10;1.00
13074;DHT22;6603;47.066;15.396;2024-01-15T10:02:38;1.20;99.90
13074;DHT22;6603;47.066;15.396;2024-01-15T10:05:04;1.20;1.00
13074;DHT22;6603;47.066;15.396;2024-01-15T10:07:34;1.30;99.90
13074;DHT22;6603;47.066;15.396;2024-01-15T10:10:01;1.40;2.30
13074;DHT22;6603;47.066;15.396;2024-01-15T10:12:27;1.50;57.60
13074;DHT22;6603;47.066;15.396;2024-01-15T10:14:52;1.60;1.00
13074;DHT22;6603;47.066;15.396;2024-01-15T10:17:18;1.70;1.00
13074;DHT22;6603;47.066;15.396;2024-01-15T10:19:47;1.80;1.00
13074;DHT22;6603;47.066;15.396;2024-01-15T10:22:17;1.90;99.90
13074;DHT22;6603;47.066;15.396;2024-01-15T10:24:46;2.00;1.00
13074;DHT22;6603;47.066;15.396;2024-01-15T10:27:16;2.00;99.90
13074;DHT22;6603;47.066;15.396;2024-01-15T10:29:42;2.10;99.90
13074;DHT22;6603;47.066;15.396;2024-01-15T10:32:09;2.20;1.00
13074;DHT22;6603;47.066;15.396;2024-01-15T10:34:39;2.30;99.90
13074;DHT22;6603;47.066;15.396;2024-01-15T10:37:07;2.50;1.00
13074;DHT22;6603;47.066;15.396;2024-01-15T10:39:35;2.50;99.90
13074;DHT22;6603;47.066;15.396;2024-01-15T10:42:02;2.60;1.00
13074;DHT22;6603;47.066;15.396;2024-01-15T10:44:29;2.60;99.90
13074;DHT22;6603;47.066;15.396;2024-01-15T10:46:57;2.80;1.00
13074;DHT22;6603;47.066;15.396;2024-01-15T10:49:23;2.80;1.00
13074;DHT22;6603;47.066;15.396;2024-01-15T10:51:52;2.90;1.00
13074;DHT22;6603;47.066;15.396;2024-01-15T10:54:19;2.90;1.00
13074;DHT22;6603;47.066;15.396;2024-01-15T10:56:47;3.10;1.00
13074;DHT22;6603;47.066;15.396;2024-01-15T10:59:14;3.20;99.90
13074;DHT22;6603;47.066;15.396;2024-01-15T11:01:40;3.40;86.70
13074;DHT22;6603;47.066;15.396;2024-01-15T11:04:07;3.50;99.90
13074;DHT22;6603;47.066;15.396;2024-01-15T11:06:48;3.60;99.90
13074;DHT22;6603;47.066;15.396;2024-01-15T11:09:15;3.60;1.00
13074;DHT22;6603;47.066;15.396;2024-01-15T11:11:47;3.60;1.00
13074;DHT22;6603;47.066;15.396;2024-01-15T11:14:38;3.60;33.00
13074;DHT22;6603;47.066;15.396;2024-01-15T11:17:04;3.60;1.00
13074;DHT22;6603;47.066;15.396;2024-01-15T11:19:47;3.70;1.00
13074;DHT22;6603;47.066;15.396;2024-01-15T11:22:48;3.70;1.00
13074;DHT22;6603;47.066;15.396;2024-01-15T11:25:15;3.70;1.00
13074;DHT22;6603;47.066;15.396;2024-01-15T11:27:50;3.60;1.00
13074;DHT22;6603;47.066;15.396;2024-01-15T11:30:18;3.70;1.00
13074;DHT22;6603;47.066;15.396;2024-01-15T11:32:46;3.80;1.00
13074;DHT22;6603;47.066;15.396;2024-01-15T11:35:13;3.90;1.00
13074;DHT22;6603;47.066;15.396;2024-01-15T11:40:21;4.10;99.90
13074;DHT22;6603;47.066;15.396;2024-01-15T11:42:48;3.90;65.30
13074;DHT22;6603;47.066;15.396;2024-01-15T11:45:21;3.80;99.90
13074;DHT22;6603;47.066;15.396;2024-01-15T11:48:08;3.90;99.90
13074;DHT22;6603;47.066;15.396;2024-01-15T11:50:35;4.00;99.90
13074;DHT22;6603;47.066;15.396;2024-01-15T11:55:57;4.30;81.10
13074;DHT22;6603;47.066;15.396;2024-01-15T11:58:24;4.40;1.00
13074;DHT22;6603;47.066;15.396;2024-01-15T12:00:51;4.30;1.00
13074;DHT22;6603;47.066;15.396;2024-01-15T12:03:21;4.20;1.00
13074;DHT22;6603;47.066;15.396;2024-01-15T12:05:48;4.10;1.00
13074;DHT22;6603;47.066;15.396;2024-01-15T12:08:14;4.10;1.00
13074;DHT22;6603;47.066;15.396;2024-01-15T12:10:41;4.00;1.00
13074;DHT22;6603;47.066;15.396;2024-01-15T12:13:14;4.00;1.00
13074;DHT22;6603;47.066;15.396;2024-01-15T12:15:42;4.10;1.00
13074;DHT22;6603;47.066;15.396;2024-01-15T12:18:09;4.00;1.00
13074;DHT22;6603;47.066;15.396;2024-01-15T12:20:36;4.00;1.00
13074;DHT22;6603;47.066;15.396;2024-01-15T12:23:05;4.00;1.00
13074;DHT22;6603;47.066;15.396;2024-01-15T12:25:32;4.10;1.00
13074;DHT22;6603;47.066;15.396;2024-01-15T12:28:00;4.10;1.00
13074;DHT22;6603;47.066;15.396;2024-01-15T12:30:30;4.10;1.00
13074;DHT22;6603;47.066;15.396;2024-01-15T12:33:04;4.20;1.00
13074;DHT22;6603;47.066;15.396;2024-01-15T12:35:30;4.20;1.00
13074;DHT22;6603;47.066;15.396;2024-01-15T12:37:56;4.20;1.00
13074;DHT22;6603;47.066;15.396;2024-01-15T12:40:23;4.20;1.00
13074;DHT22;6603;47.066;15.396;2024-01-15T12:42:49;4.20;72.60
13074;DHT22;6603;47.066;15.396;2024-01-15T12:45:15;4.20;1.00
13074;DHT22;6603;47.066;15.396;2024-01-15T12:47:42;4.20;1.00
13074;DHT22;6603;47.066;15.396;2024-01-15T12:50:10;4.30;1.00
13074;DHT22;6603;47.066;15.396;2024-01-15T12:52:36;4.30;1.00
13074;DHT22;6603;47.066;15.396;2024-01-15T12:55:07;4.30;1.00
13074;DHT22;6603;47.066;15.396;2024-01-15T12:57:37;4.40;1.00
13074;DHT22;6603;47.066;15.396;2024-01-15T13:00:05;4.40;1.00
13074;DHT22;6603;47.066;15.396;2024-01-15T13:02:34;4.50;1.00
13074;DHT22;6603;47.066;15.396;2024-01-15T13:05:00;4.60;1.00
13074;DHT22;6603;47.066;15.396;2024-01-15T13:07:27;4.60;1.00
13074;DHT22;6603;47.066;15.396;2024-01-15T13:09:53;4.60;1.00
13074;DHT22;6603;47.066;15.396;2024-01-15T13:12:20;4.70;1.00
13074;DHT22;6603;47.066;15.396;2024-01-15T13:14:46;4.80;1.00
13074;DHT22;6603;47.066;15.396;2024-01-15T13:17:15;4.80;1.00
13074;DHT22;6603;47.066;15.396;2024-01-15T13:19:42;4.90;1.00
13074;DHT22;6603;47.066;15.396;2024-01-15T13:22:08;4.80;1.00
13074;DHT22;6603;47.066;15.396;2024-01-15T13:24:35;4.90;1.00
13074;DHT22;6603;47.066;15.396;2024-01-15T13:27:03;4.80;1.00
13074;DHT22;6603;47.066;15.396;2024-01-15T13:29:32;4.60;1.00
13074;DHT22;6603;47.066;15.396;2024-01-15T13:31:59;4.40;1.00
13074;DHT22;6603;47.066;15.396;2024-01-15T13:34:25;4.30;1.00
13074;DHT22;6603;47.066;15.396;2024-01-15T13:36:51;4.30;1.00
13074;DHT22;6603;47.066;15.396;2024-01-15T13:39:19;4.20;1.00
13074;DHT22;6603;47.066;15.396;2024-01-15T13:41:46;4.20;1.00
13074;DHT22;6603;47.066;15.396;2024-01-15T13:44:12;4.20;72.80
13074;DHT22;6603;47.066;15.396;2024-01-15T13:46:38;4.30;45.00
13074;DHT22;6603;47.066;15.396;2024-01-15T13:49:04;4.30;1.00
13074;DHT22;6603;47.066;15.396;2024-01-15T13:51:32;4.30;53.00
13074;DHT22;6603;47.066;15.396;2024-01-15T13:53:58;4.30;99.90
13074;DHT22;6603;47.066;15.396;2024-01-15T13:56:24;4.20;1.00
13074;DHT22;6603;47.066;15.396;2024-01-15T13:58:49;4.30;1.00
13074;DHT22;6603;47.066;15.396;2024-01-15T14:01:17;4.20;99.90
13074;DHT22;6603;47.066;15.396;2024-01-15T14:03:43;4.20;1.00
13074;DHT22;6603;47.066;15.396;2024-01-15T14:06:10;4.20;1.00
13074;DHT22;6603;47.066;15.396;2024-01-15T14:08:37;4.20;1.00
13074;DHT22;6603;47.066;15.396;2024-01-15T14:11:03;4.10;1.00
13074;DHT22;6603;47.066;15.396;2024-01-15T14:13:31;4.00;1.00
13074;DHT22;6603;47.066;15.396;2024-01-15T14:15:58;4.00;1.00
13074;DHT22;6603;47.066;15.396;2024-01-15T14:18:23;3.90;51.70
13074;DHT22;6603;47.066;15.396;2024-01-15T14:20:49;3.80;99.90
13074;DHT22;6603;47.066;15.396;2024-01-15T14:23:15;3.80;99.90
13074;DHT22;6603;47.066;15.396;2024-01-15T14:25:41;3.80;1.00
13074;DHT22;6603;47.066;15.396;2024-01-15T14:28:07;3.80;15.40
13074;DHT22;6603;47.066;15.396;2024-01-15T14:30:33;3.70;1.00
13074;DHT22;6603;47.066;15.396;2024-01-15T14:32:59;3.70;38.50
13074;DHT22;6603;47.066;15.396;2024-01-15T14:35:25;3.60;99.90
13074;DHT22;6603;47.066;15.396;2024-01-15T14:37:51;3.60;1.00
13074;DHT22;6603;47.066;15.396;2024-01-15T14:40:17;3.60;99.90
13074;DHT22;6603;47.066;15.396;2024-01-15T14:42:44;3.50;99.90
13074;DHT22;6603;47.066;15.396;2024-01-15T14:45:10;3.40;1.00
13074;DHT22;6603;47.066;15.396;2024-01-15T14:47:39;3.40;1.00
13074;DHT22;6603;47.066;15.396;2024-01-15T14:50:09;3.30;1.00
13074;DHT22;6603;47.066;15.396;2024-01-15T14:52:38;3.30;1.00
13074;DHT22;6603;47.066;15.396;2024-01-15T14:55:06;3.30;1.00
13074;DHT22;6603;47.066;15.396;2024-01-15T14:57:32;3.20;1.00
13074;DHT22;6603;47.066;15.396;2024-01-15T14:59:58;3.10;99.90
13074;DHT22;6603;47.066;15.396;2024-01-15T15:02:24;3.10;1.00
13074;DHT22;6603;47.066;15.396;2024-01-15T15:04:54;3.00;1.00
13074;DHT22;6603;47.066;15.396;2024-01-15T15:07:23;3.00;1.00
13074;DHT22;6603;47.066;15.396;2024-01-15T15:09:49;2.90;69.40
13074;DHT22;6603;47.066;15.396;2024-01-15T15:12:17;2.80;99.90
13074;DHT22;6603;47.066;15.396;2024-01-15T15:14:43;2.80;1.50
13074;DHT22;6603;47.066;15.396;2024-01-15T15:17:09;2.80;1.00
13074;DHT22;6603;47.066;15.396;2024-01-15T15:19:37;2.90;1.00
13074;DHT22;6603;47.066;15.396;2024-01-15T15:22:06;2.80;1.00
13074;DHT22;6603;47.066;15.396;2024-01-15T15:24:38;2.80;1.00
13074;DHT22;6603;47.066;15.396;2024-01-15T15:27:05;2.60;99.90
13074;DHT22;6603;47.066;15.396;2024-01-15T15:29:35;2.50;18.30
13074;DHT22;6603;47.066;15.396;2024-01-15T15:32:01;2.40;68.00
13074;DHT22;6603;47.066;15.396;2024-01-15T15:34:27;2.30;38.70
13074;DHT22;6603;47.066;15.396;2024-01-15T15:36:53;2.20;99.90
13074;DHT22;6603;47.066;15.396;2024-01-15T15:39:21;2.20;1.00
13074;DHT22;6603;47.066;15.396;2024-01-15T15:41:48;2.10;1.00